createdAt,value
2018-06-24T00:01:42.796Z,73.10
2018-06-24T00:06:45.842Z,73.20
2018-06-24T00:11:48.884Z,73.00
2018-06-24T00:16:51.961Z,73.20
2018-06-24T00:21:55.017Z,73.20
2018-06-24T00:26:58.077Z,73.00
2018-06-24T00:32:01.125Z,73.20
2018-06-24T00:37:04.284Z,73.60
2018-06-24T00:47:35.769Z,74.20
2018-06-24T00:52:39.582Z,74.70
2018-06-24T00:57:42.826Z,74.60
2018-06-24T01:02:45.881Z,74.30
2018-06-24T01:07:48.914Z,74.10
2018-06-24T01:12:51.953Z,73.70
2018-06-24T01:18:01.389Z,73.70
2018-06-24T01:23:06.154Z,73.80
2018-06-24T01:28:09.197Z,74.20
2018-06-24T01:33:12.245Z,74.10
2018-06-24T01:38:48.183Z,73.90
2018-06-24T01:43:51.211Z,73.80
2018-06-24T01:48:54.450Z,74.50
2018-06-24T01:53:57.500Z,75.10
2018-06-24T01:59:00.537Z,75.10
2018-06-24T02:04:03.584Z,75.60
2018-06-24T02:09:12.210Z,76.30
2018-06-24T02:14:15.361Z,76.50
2018-06-24T02:19:18.420Z,76.70
2018-06-24T02:24:21.480Z,77.40
2018-06-24T02:29:25.930Z,77.90
2018-06-24T02:34:29.254Z,78.00
2018-06-24T02:39:32.285Z,78.40
2018-06-24T02:44:36.132Z,78.80
2018-06-24T02:49:39.293Z,79.00
2018-06-24T02:59:53.826Z,79.40
2018-06-24T03:04:56.867Z,79.60
2018-06-24T03:09:59.909Z,79.70
2018-06-24T03:15:03.939Z,80.10
2018-06-24T03:20:09.028Z,80.20
2018-06-24T03:25:16.593Z,80.40
2018-06-24T03:30:36.390Z,80.30
2018-06-24T03:35:39.625Z,79.60
2018-06-24T03:40:42.669Z,80.60
2018-06-24T03:45:45.729Z,81.30
2018-06-24T03:50:49.381Z,82.10
2018-06-24T03:55:52.552Z,81.30
2018-06-24T04:00:55.599Z,81.40
2018-06-24T04:05:58.642Z,81.60
2018-06-24T04:11:01.682Z,81.90
2018-06-24T04:16:09.796Z,82.00
2018-06-24T04:21:14.849Z,82.20
2018-06-24T04:26:17.885Z,82.20
2018-06-24T04:31:21.198Z,82.00
2018-06-24T04:36:24.281Z,81.90
2018-06-24T04:41:27.332Z,81.90
2018-06-24T04:46:30.382Z,82.60
2018-06-24T04:51:35.726Z,82.50
2018-06-24T05:01:43.107Z,82.60
2018-06-24T05:06:46.145Z,82.70
2018-06-24T05:11:49.514Z,82.70
2018-06-24T05:16:52.549Z,82.60
2018-06-24T05:21:55.605Z,83.10
2018-06-24T05:26:58.655Z,83.50
2018-06-24T05:32:01.729Z,83.40
2018-06-24T05:37:04.779Z,83.20
2018-06-24T05:42:12.113Z,83.00
2018-06-24T05:47:15.541Z,82.50
2018-06-24T05:52:43.032Z,82.40
2018-06-24T05:57:46.088Z,82.30
2018-06-24T06:02:50.271Z,82.10
2018-06-24T06:07:53.305Z,81.90
2018-06-24T06:12:56.357Z,81.90
2018-06-24T06:17:59.404Z,81.40
2018-06-24T06:23:02.465Z,80.90
2018-06-24T06:28:05.508Z,80.70
2018-06-24T06:33:09.384Z,79.90
2018-06-24T06:38:12.497Z,79.70
2018-06-24T06:43:20.372Z,79.70
2018-06-24T06:48:23.439Z,79.30
2018-06-24T06:53:26.574Z,78.80
2018-06-24T06:58:32.332Z,78.30
2018-06-24T07:03:35.452Z,78.40
2018-06-24T07:08:41.619Z,78.10
2018-06-24T07:18:48.184Z,77.00
2018-06-24T07:23:51.240Z,76.20
2018-06-24T07:34:11.621Z,74.80
2018-06-24T07:39:15.729Z,74.40
2018-06-24T07:44:18.799Z,73.70
2018-06-24T07:49:22.258Z,73.10
2018-06-24T07:54:25.958Z,72.50
2018-06-24T07:59:33.300Z,71.90
2018-06-24T08:04:36.526Z,71.00
2018-06-24T08:09:41.277Z,71.00
2018-06-24T08:14:45.465Z,70.50
2018-06-24T08:19:51.694Z,69.70
2018-06-24T08:24:54.843Z,70.30
2018-06-24T08:29:57.921Z,69.70
2018-06-24T08:35:02.429Z,69.10
2018-06-24T08:40:06.273Z,68.50
2018-06-24T08:45:09.672Z,68.70
2018-06-24T08:50:12.725Z,68.60
2018-06-24T08:55:15.794Z,67.80
2018-06-24T09:00:26.303Z,65.80
2018-06-24T09:05:29.400Z,65.60
2018-06-24T09:10:32.576Z,64.70
2018-06-24T09:15:35.703Z,63.50
2018-06-24T09:20:38.713Z,64.00
2018-06-24T09:25:41.837Z,63.60
2018-06-24T09:30:44.948Z,62.80
2018-06-24T09:35:47.959Z,62.30
2018-06-24T09:40:51.092Z,62.10
2018-06-24T09:45:54.156Z,62.00
2018-06-24T09:50:57.216Z,61.90
2018-06-24T09:56:00.280Z,62.30
2018-06-24T10:01:24.193Z,62.40
2018-06-24T10:06:27.229Z,62.90
2018-06-24T10:11:30.277Z,62.90
2018-06-24T10:16:33.373Z,62.90
2018-06-24T10:21:36.879Z,62.60
2018-06-24T10:26:40.251Z,62.10
2018-06-24T10:31:43.300Z,61.50
2018-06-24T10:36:47.165Z,61.90
2018-06-24T10:41:50.204Z,62.30
2018-06-24T10:46:53.254Z,62.60
2018-06-24T10:51:56.302Z,63.10
2018-06-24T10:56:59.353Z,64.70
2018-06-24T11:02:02.461Z,65.20
2018-06-24T11:07:05.533Z,65.30
2018-06-24T11:12:08.640Z,66.40
2018-06-24T11:17:11.738Z,69.00
2018-06-24T11:22:18.433Z,69.70
2018-06-24T11:27:23.264Z,70.50
2018-06-24T11:37:29.300Z,70.50
2018-06-24T11:42:32.371Z,70.20
2018-06-24T11:47:36.405Z,70.10
2018-06-24T11:52:39.612Z,70.20
2018-06-24T11:57:42.658Z,69.50
2018-06-24T12:02:47.645Z,69.10
2018-06-24T12:07:50.765Z,68.60
2018-06-24T12:12:55.329Z,67.60
2018-06-24T12:17:58.417Z,67.60
2018-06-24T12:23:24.257Z,67.70
2018-06-24T12:28:27.569Z,66.60
2018-06-24T12:33:31.479Z,66.90
2018-06-24T12:38:34.574Z,66.60
2018-06-24T12:43:37.652Z,66.20
2018-06-24T12:48:40.718Z,66.40
2018-06-24T12:53:43.826Z,65.80
2018-06-24T12:58:48.412Z,65.90
2018-06-24T13:03:51.401Z,65.50
2018-06-24T13:08:55.015Z,65.50
2018-06-24T13:13:59.423Z,65.30
2018-06-24T13:19:02.591Z,65.60
2018-06-24T13:24:22.868Z,65.80
2018-06-24T13:29:25.907Z,65.50
2018-06-24T13:34:31.479Z,65.70
2018-06-24T13:39:34.509Z,66.00
2018-06-24T13:44:37.555Z,66.00
2018-06-24T13:49:40.613Z,65.80
2018-06-24T13:54:43.736Z,66.00
2018-06-24T13:59:55.953Z,66.00
2018-06-24T14:05:02.214Z,65.60
2018-06-24T14:10:06.017Z,66.50
2018-06-24T14:15:10.164Z,66.40
2018-06-24T14:20:13.495Z,67.00
2018-06-24T14:25:16.745Z,67.10
2018-06-24T14:30:19.816Z,67.20
2018-06-24T14:35:31.193Z,67.50
2018-06-24T14:40:34.655Z,67.80
2018-06-24T14:45:38.606Z,68.20
2018-06-24T14:50:42.223Z,68.60
2018-06-24T14:55:45.700Z,68.80
2018-06-24T15:00:50.995Z,69.70
2018-06-24T15:05:54.541Z,70.10
2018-06-24T15:11:25.141Z,69.80
2018-06-24T15:16:34.470Z,69.60
2018-06-24T15:21:38.173Z,71.10
2018-06-24T15:26:41.204Z,71.50
2018-06-24T15:31:44.262Z,74.00
2018-06-24T15:36:48.106Z,74.10
2018-06-24T15:41:51.154Z,74.20
2018-06-24T15:46:54.197Z,74.30
2018-06-24T15:57:27.361Z,74.60
2018-06-24T16:02:30.439Z,74.50
2018-06-24T16:13:05.250Z,76.00
2018-06-24T16:18:08.495Z,76.30
2018-06-24T16:23:11.639Z,76.30
2018-06-24T16:28:14.677Z,76.50
2018-06-24T16:33:17.726Z,76.80
2018-06-24T16:38:20.765Z,76.90
2018-06-24T16:43:23.889Z,76.70
2018-06-24T16:48:26.945Z,76.80
2018-06-24T16:53:30.017Z,76.80
2018-06-24T16:58:33.081Z,76.90
2018-06-24T17:03:36.142Z,76.80
2018-06-24T17:08:39.196Z,76.60
2018-06-24T17:13:42.233Z,76.70
2018-06-24T17:18:45.388Z,76.90
2018-06-24T17:23:48.438Z,76.90
2018-06-24T17:29:00.352Z,76.90
2018-06-24T17:34:03.421Z,77.00
2018-06-24T17:39:08.956Z,77.00
2018-06-24T17:44:12.007Z,77.10
2018-06-24T17:49:15.078Z,77.20
2018-06-24T17:54:18.584Z,77.30
2018-06-24T17:59:26.554Z,77.40
2018-06-24T18:04:29.783Z,77.40
2018-06-24T18:09:32.865Z,77.50
2018-06-24T18:14:35.923Z,77.50
2018-06-24T18:19:44.170Z,77.50
2018-06-24T18:24:47.384Z,77.50
2018-06-24T18:29:50.413Z,77.60
2018-06-24T18:34:55.569Z,77.80
2018-06-24T18:39:58.797Z,78.10
2018-06-24T18:45:01.937Z,79.10
2018-06-24T18:50:04.985Z,79.50
2018-06-24T18:55:08.109Z,79.90
2018-06-24T19:00:11.172Z,80.70
2018-06-24T19:05:14.320Z,81.20
2018-06-24T23:56:42.066Z,86.20
